Arnoldsville, Georgia
Current Conditions -  °F | °C
As of 12:51 PM on Sunday 25 Jan 2015 (Local Time) from KAHN Reporting Station
Clear Clear  
Wind Chill: 55°   Ceiling: Unl
Heat Index: 55°   Visibility: 10mi
Dew Point: 32°   Wind: 7mph
Humidity: 42%   Direction: NA
Pressure: 29.87"   Gusts: NA
Location:  33.91°N, 83.22°W
Report Text: KAHN 251751Z VRB06KT 10SM CLR 13/00 A2987 RMK AO2 SLP118 T01280000 10133 21017 58026
Loading
Personal Weather Stations






























Interactive Weather Map New forecast layout! Learn more

10-Day Weather Forecast

Advertisements
Track Severe Weather on mobile